Time;durP1;ratioP1;P1;durP2;ratioP2;P2;SDS_P1;SDS_P2;PMS_P1;PMS_P2;Temp;Humidity;BMP_temperature;BMP_pressure;BME280_temperature;BME280_humidity;BME280_pressure;Samples;Min_cycle;Max_cycle;Signal;HPM_P1;HPM_P2
2022/11/15 00:02:04;;;;;;;41.97;23.40;;;;;;;17.27;73.37;99170.22;4761845;30;20058;-60
2022/11/15 00:05:12;;;;;;;44.03;23.63;;;;;;;17.09;73.86;99167.75;4746067;30;20139;-61
2022/11/15 00:08:21;;;;;;;48.42;25.17;;;;;;;17.01;73.95;99177.94;4720484;30;20127;-60
2022/11/15 00:11:21;;;;;;;46.03;24.05;;;;;;;17.02;73.57;99182.31;4763570;30;20209;-61
2022/11/15 00:14:28;;;;;;;43.83;22.92;;;;;;;17.15;73.72;99183.06;4764013;30;20609;-60
2022/11/15 00:17:35;;;;;;;46.55;24.35;;;;;;;17.25;73.61;99190.53;4764279;30;20074;-61
2022/11/15 00:20:43;;;;;;;44.83;24.58;;;;;;;17.31;73.28;99189.53;4778540;29;20055;-59
2022/11/15 00:23:50;;;;;;;43.35;23.30;;;;;;;17.22;73.79;99202.72;4781012;30;20047;-60
2022/11/15 00:26:51;;;;;;;44.85;25.00;;;;;;;17.16;73.16;99198.28;4781907;29;20066;-60
2022/11/15 00:29:58;;;;;;;45.95;24.50;;;;;;;17.11;73.46;99187.31;4764280;30;20074;-60
2022/11/15 00:33:03;;;;;;;43.63;25.65;;;;;;;17.21;73.07;99203.75;4761806;30;20142;-59
2022/11/15 00:36:15;;;;;;;52.63;28.17;;;;;;;17.03;73.61;99197.50;4763668;30;20071;-59
2022/11/15 00:39:17;;;;;;;50.67;27.52;;;;;;;17.00;73.54;99200.69;4771565;30;20063;-62
2022/11/15 00:42:24;;;;;;;51.95;29.52;;;;;;;17.03;73.46;99208.34;4754097;30;20058;-61
2022/11/15 00:45:32;;;;;;;54.20;29.60;;;;;;;17.11;73.63;99211.72;4781388;29;20388;-59
2022/11/15 00:48:32;;;;;;;55.53;31.02;;;;;;;17.14;73.42;99219.34;4757683;29;20074;-59
2022/11/15 00:51:39;;;;;;;57.13;32.15;;;;;;;17.14;73.39;99220.22;4754757;30;20066;-58
2022/11/15 00:54:39;;;;;;;61.00;32.85;;;;;;;17.15;72.89;99216.41;4769147;29;20051;-60
2022/11/15 00:57:47;;;;;;;63.63;31.85;;;;;;;17.05;73.06;99220.84;4781255;29;20703;-59
2022/11/15 01:00:47;;;;;;;63.67;33.90;;;;;;;17.02;73.18;99222.13;4780537;29;20304;-61
2022/11/15 01:03:54;;;;;;;63.55;33.88;;;;;;;16.85;73.98;99222.09;4765264;29;20059;-59
2022/11/15 01:06:59;;;;;;;63.03;34.08;;;;;;;16.91;73.19;99220.31;4763600;30;20496;-59
2022/11/15 01:10:06;;;;;;;70.25;34.25;;;;;;;16.91;73.27;99226.56;4774718;30;20073;-60
2022/11/15 01:13:07;;;;;;;66.80;33.90;;;;;;;16.94;73.54;99228.78;4781163;30;20139;-58
2022/11/15 01:16:18;;;;;;;67.28;34.53;;;;;;;16.90;73.16;99226.81;4786672;29;20069;-60
2022/11/15 01:19:18;;;;;;;75.32;36.88;;;;;;;16.89;73.41;99227.88;4763658;29;20067;-59
2022/11/15 01:22:25;;;;;;;71.80;35.95;;;;;;;17.00;73.08;99225.09;4762591;29;20071;-58
2022/11/15 01:25:26;;;;;;;79.10;38.05;;;;;;;16.86;72.83;99229.19;4767999;30;20071;-61
2022/11/15 01:28:35;;;;;;;72.00;37.25;;;;;;;17.00;73.08;99241.34;4764887;30;20091;-59
2022/11/15 01:31:43;;;;;;;78.13;37.40;;;;;;;17.01;72.58;99237.59;4780785;29;20066;-59
2022/11/15 01:34:43;;;;;;;85.22;38.78;;;;;;;16.79;73.45;99244.72;4761659;30;20055;-59
2022/11/15 01:37:51;;;;;;;80.75;40.78;;;;;;;16.72;73.17;99242.19;4772941;30;20059;-59
2022/11/15 01:40:52;;;;;;;72.05;39.60;;;;;;;16.79;73.57;99255.56;4779982;30;20065;-59
2022/11/15 01:44:19;;;;;;;76.40;39.40;;;;;;;16.98;72.85;99259.75;4780736;29;20094;-59
2022/11/15 01:47:29;;;;;;;70.85;36.90;;;;;;;16.79;72.71;99256.38;4779277;29;20059;-59
2022/11/15 01:50:39;;;;;;;67.88;35.67;;;;;;;16.87;72.74;99263.38;4762352;30;20066;-59
2022/11/15 01:53:42;;;;;;;71.07;36.42;;;;;;;16.99;72.94;99261.41;4746282;30;20062;-60
2022/11/15 01:57:03;;;;;;;63.35;33.00;;;;;;;16.94;72.67;99266.75;4779503;30;20140;-60
2022/11/15 02:00:05;;;;;;;71.88;37.25;;;;;;;16.97;72.42;99274.41;4762272;30;20765;-58
2022/11/15 02:03:13;;;;;;;65.28;33.28;;;;;;;16.83;72.60;99271.16;4750880;30;20194;-59
2022/11/15 02:06:21;;;;;;;57.65;30.77;;;;;;;17.02;72.34;99269.09;4762089;30;20147;-59
2022/11/15 02:09:29;;;;;;;61.03;32.80;;;;;;;17.02;71.94;99277.22;4766046;30;20063;-62
2022/11/15 02:12:38;;;;;;;57.22;32.38;;;;;;;17.10;72.21;99277.88;4773857;30;20388;-61
2022/11/15 02:15:50;;;;;;;60.70;32.45;;;;;;;17.17;72.45;99279.38;4779545;29;20663;-60
2022/11/15 02:19:33;;;;;;;70.85;36.10;;;;;;;17.32;71.60;99292.38;4780246;30;20147;-60
2022/11/15 02:23:14;;;;;;;74.35;38.67;;;;;;;17.25;71.63;99302.56;4779261;29;20107;-60
2022/11/15 02:26:49;;;;;;;77.53;40.00;;;;;;;17.27;71.36;99294.19;4779562;30;20063;-61
2022/11/15 02:30:35;;;;;;;81.85;41.10;;;;;;;17.51;71.76;99305.75;4780107;30;20078;-60
2022/11/15 02:33:49;;;;;;;74.60;39.25;;;;;;;17.50;71.22;99304.09;4767107;30;20388;-61
2022/11/15 02:37:16;;;;;;;74.07;40.58;;;;;;;17.59;70.81;99308.88;4776809;30;20065;-60
2022/11/15 02:40:48;;;;;;;76.32;42.88;;;;;;;17.70;69.71;99315.31;4773431;30;20078;-59
2022/11/15 02:44:04;;;;;;;77.88;40.65;;;;;;;17.69;70.34;99319.06;4771875;30;20066;-60
2022/11/15 02:47:14;;;;;;;78.25;41.90;;;;;;;17.79;70.50;99323.88;4770800;30;20473;-61
2022/11/15 02:50:25;;;;;;;77.15;42.17;;;;;;;17.78;69.77;99325.75;4782634;30;20062;-59
2022/11/15 02:53:25;;;;;;;;;;;;;;;18.13;68.65;99334.75;4774977;30;20508;-60
2022/11/15 02:56:33;;;;;;;76.57;39.95;;;;;;;18.03;68.12;99343.56;4766337;30;19929;-60
2022/11/15 02:59:52;;;;;;;84.30;41.90;;;;;;;18.07;68.61;99349.31;4783023;30;20136;-60
2022/11/15 03:03:23;;;;;;;75.90;38.72;;;;;;;18.31;66.50;99356.22;4782499;30;20516;-61
2022/11/15 03:06:48;;;;;;;74.28;38.50;;;;;;;18.43;66.82;99363.44;4781017;30;20206;-61
2022/11/15 03:10:06;;;;;;;71.32;37.20;;;;;;;18.50;67.08;99370.34;4779771;30;20203;-60
2022/11/15 03:13:33;;;;;;;69.65;37.55;;;;;;;18.30;66.08;99367.34;4779225;29;20075;-60
2022/11/15 03:17:02;;;;;;;75.53;41.03;;;;;;;18.72;66.26;99372.28;4800844;29;20441;-60
2022/11/15 03:20:13;;;;;;;67.07;37.10;;;;;;;18.82;65.58;99374.34;4782465;29;20070;-61
2022/11/15 03:23:21;;;;;;;65.93;38.35;;;;;;;18.92;64.69;99379.94;4770859;30;20138;-60
2022/11/15 03:26:32;;;;;;;75.53;37.70;;;;;;;19.34;64.90;99382.88;4766223;30;20173;-60
2022/11/15 03:29:42;;;;;;;67.15;36.35;;;;;;;19.56;62.94;99385.53;4764793;30;20050;-60
2022/11/15 03:32:59;;;;;;;61.78;35.45;;;;;;;19.84;63.65;99380.16;4782225;29;20119;-57
2022/11/15 03:36:06;;;;;;;205.52;43.17;;;;;;;20.04;62.26;99377.56;4780836;30;20070;-60
2022/11/15 03:39:12;;;;;;;72.05;36.90;;;;;;;20.03;61.36;99375.13;4781654;30;20080;-61
2022/11/15 03:42:27;;;;;;;67.78;35.95;;;;;;;20.26;59.42;99387.56;4774270;30;20051;-60
2022/11/15 03:45:42;;;;;;;70.57;36.13;;;;;;;20.72;59.11;99390.63;4782610;30;20112;-60
2022/11/15 03:48:57;;;;;;;66.43;34.58;;;;;;;21.88;56.47;99385.03;4782558;29;20065;-61
2022/11/15 03:51:58;;;;;;;58.10;33.72;;;;;;;21.88;55.07;99383.13;4782647;30;20070;-61
2022/11/15 03:55:11;;;;;;;68.88;37.40;;;;;;;21.41;55.38;99386.00;4770578;30;20047;-60
2022/11/15 03:58:18;;;;;;;59.22;35.78;;;;;;;22.76;52.60;99388.53;4781364;29;20058;-61
2022/11/15 04:01:25;;;;;;;72.13;36.92;;;;;;;23.26;52.12;99390.28;4763446;30;20059;-60
2022/11/15 04:04:32;;;;;;;70.80;38.45;;;;;;;22.80;51.58;99393.16;4774256;29;20079;-60
2022/11/15 04:07:32;;;;;;;61.15;35.83;;;;;;;22.60;51.56;99387.72;4777580;29;20092;-60
2022/11/15 04:10:39;;;;;;;72.07;38.28;;;;;;;22.93;52.60;99390.91;4772295;30;20200;-60
2022/11/15 04:13:40;;;;;;;68.78;37.92;;;;;;;22.84;51.04;99388.78;4760838;30;20055;-60
2022/11/15 04:16:47;;;;;;;82.85;40.53;;;;;;;22.94;52.00;99395.31;4768211;30;20836;-61
2022/11/15 04:26:51;;;;;;;70.75;37.17;;;;;;;23.98;49.46;99402.72;4782201;30;20551;-60
2022/11/15 04:29:52;;;;;;;71.13;38.38;;;;;;;24.41;50.04;99406.50;4782304;30;20065;-59
2022/11/15 04:32:59;;;;;;;63.22;34.25;;;;;;;23.23;49.14;99404.56;4770203;30;20169;-60
2022/11/15 04:39:25;;;;;;;68.35;37.38;;;;;;;23.19;49.31;99403.44;4765339;30;20066;-60
2022/11/15 04:42:32;;;;;;;67.75;37.72;;;;;;;22.33;51.54;99416.22;4779141;30;20160;-57
2022/11/15 04:45:32;;;;;;;81.60;40.33;;;;;;;23.32;50.16;99409.44;4771141;30;20563;-59
2022/11/15 04:48:40;;;;;;;70.93;39.20;;;;;;;23.95;50.02;99408.81;4781278;30;20220;-58
2022/11/15 04:51:40;;;;;;;67.68;36.67;;;;;;;23.41;48.86;99413.22;4779662;30;20213;-59
2022/11/15 04:54:47;;;;;;;60.90;34.70;;;;;;;23.80;50.27;99420.69;4772764;30;20135;-58
2022/11/15 04:57:47;;;;;;;60.35;33.17;;;;;;;23.54;48.78;99420.00;4766179;30;20072;-59
2022/11/15 05:00:53;;;;;;;64.55;34.13;;;;;;;23.74;48.89;99414.41;4781293;29;20066;-58
2022/11/15 05:04:19;;;;;;;59.53;31.77;;;;;;;23.82;47.70;99407.53;4770885;30;20083;-61
2022/11/15 05:07:20;;;;;;;55.85;31.58;;;;;;;23.80;48.23;99404.25;4778377;29;20048;-59
2022/11/15 05:10:28;;;;;;;56.35;30.90;;;;;;;24.09;47.30;99400.75;4779181;30;20123;-59
2022/11/15 05:13:36;;;;;;;46.58;25.77;;;;;;;23.55;47.53;99405.19;4768189;30;20201;-58
2022/11/15 05:16:36;;;;;;;54.20;28.50;;;;;;;23.54;49.56;99409.88;4779221;30;20140;-59
2022/11/15 05:19:51;;;;;;;60.63;31.35;;;;;;;23.96;47.57;99399.47;4780544;29;20055;-61
2022/11/15 05:22:59;;;;;;;47.90;26.23;;;;;;;24.22;47.47;99395.41;4757406;30;20151;-59
2022/11/15 05:26:07;;;;;;;51.08;28.15;;;;;;;23.15;49.23;99399.63;4774982;30;20082;-61
2022/11/15 05:29:10;;;;;;;48.85;26.50;;;;;;;23.57;48.14;99403.00;4779012;30;20686;-63
2022/11/15 05:32:19;;;;;;;49.15;27.08;;;;;;;24.38;47.44;99400.75;4779715;30;20151;-61
2022/11/15 05:35:41;;;;;;;45.92;24.83;;;;;;;24.07;47.29;99392.00;4777993;30;20089;-60
2022/11/15 05:38:50;;;;;;;47.25;24.05;;;;;;;24.49;47.25;99399.56;4767687;30;20200;-61
2022/11/15 05:42:04;;;;;;;45.55;23.30;;;;;;;24.09;47.28;99398.00;4779446;30;20395;-60
2022/11/15 05:45:07;;;;;;;47.20;23.02;;;;;;;24.81;47.61;99403.66;4768558;29;20055;-58
2022/11/15 05:48:14;;;;;;;39.70;20.13;;;;;;;24.69;45.68;99398.56;4773645;29;20209;-57
2022/11/15 05:51:16;;;;;;;35.53;18.88;;;;;;;24.36;48.31;99400.22;4777681;30;20092;-57
2022/11/15 05:54:23;;;;;;;34.88;20.92;;;;;;;23.94;47.93;99397.03;4779329;29;20094;-61
2022/11/15 05:57:25;;;;;;;36.90;21.27;;;;;;;24.57;47.15;99381.69;4775705;30;20070;-60
2022/11/15 06:00:32;;;;;;;42.17;21.30;;;;;;;24.51;48.05;99372.69;4777574;29;20864;-62
2022/11/15 06:03:33;;;;;;;33.60;18.70;;;;;;;24.97;47.94;99385.06;4778198;30;20078;-61
2022/11/15 06:06:40;;;;;;;34.30;18.58;;;;;;;24.62;46.77;99379.69;4778495;30;20163;-61
2022/11/15 06:09:40;;;;;;;30.15;17.67;;;;;;;25.14;47.43;99370.88;4780179;30;20077;-57
2022/11/15 06:12:55;;;;;;;37.07;20.40;;;;;;;24.96;46.79;99366.97;4773375;29;20062;-58
2022/11/15 06:15:56;;;;;;;38.40;20.02;;;;;;;24.39;47.99;99364.00;4797005;29;20147;-58
2022/11/15 06:19:02;;;;;;;39.50;21.55;;;;;;;25.18;48.17;99364.50;4802489;29;20073;-57
2022/11/15 06:22:03;;;;;;;50.75;24.35;;;;;;;24.80;47.52;99358.94;4784492;29;20670;-60
2022/11/15 06:25:10;;;;;;;39.03;22.13;;;;;;;25.18;46.25;99363.66;4449630;29;10000315;-60
2022/11/15 06:28:11;;;;;;;33.95;20.35;;;;;;;25.24;46.82;99362.53;4781684;30;20409;-60
2022/11/15 06:31:19;;;;;;;35.67;18.95;;;;;;;25.21;46.88;99360.34;4781109;30;20070;-60
2022/11/15 06:34:19;;;;;;;34.58;19.30;;;;;;;25.14;45.01;99357.13;4780222;30;20065;-59
2022/11/15 06:37:27;;;;;;;40.15;19.75;;;;;;;25.34;47.36;99347.84;4779664;30;20093;-59
2022/11/15 06:40:28;;;;;;;35.70;20.60;;;;;;;24.86;47.49;99339.63;4780046;30;20062;-61
2022/11/15 06:43:36;;;;;;;35.03;20.08;;;;;;;25.36;45.27;99334.63;4777917;30;20066;-60
2022/11/15 06:46:30;;;;;;;41.53;19.95;;;;;;;25.19;45.47;99330.41;4778006;30;20826;-60
2022/11/15 06:49:38;;;;;;;42.83;21.23;;;;;;;25.26;46.38;99319.09;4777939;29;20219;-59
2022/11/15 06:52:38;;;;;;;43.63;21.55;;;;;;;24.94;47.76;99315.09;4778713;30;20074;-59
2022/11/15 06:55:45;;;;;;;49.95;24.20;;;;;;;25.44;45.70;99305.66;4775274;30;20425;-57
2022/11/15 06:58:53;;;;;;;49.15;26.30;;;;;;;25.04;46.58;99307.84;4772186;30;20074;-59
2022/11/15 07:02:01;;;;;;;55.33;27.75;;;;;;;25.25;46.86;99297.41;4778609;30;20070;-60
2022/11/15 07:05:08;;;;;;;51.38;27.15;;;;;;;24.87;47.67;99295.41;4762812;30;20120;-58
2022/11/15 07:08:09;;;;;;;53.30;29.52;;;;;;;25.12;45.73;99288.75;4779614;30;20079;-58
2022/11/15 07:11:15;;;;;;;50.83;27.02;;;;;;;25.56;46.17;99281.28;4780951;30;20066;-61
2022/11/15 07:14:24;;;;;;;47.83;27.98;;;;;;;25.42;46.26;99280.41;4781675;30;20062;-57
2022/11/15 07:17:32;;;;;;;59.15;28.98;;;;;;;25.35;45.40;99270.59;4782373;29;20070;-57
2022/11/15 07:20:40;;;;;;;44.92;26.27;;;;;;;25.32;46.19;99264.91;4782298;29;20055;-58
2022/11/15 07:23:47;;;;;;;50.38;27.40;;;;;;;25.58;45.84;99257.88;4773352;30;20579;-59
2022/11/15 07:26:55;;;;;;;62.08;28.58;;;;;;;24.94;46.49;99257.44;4779830;30;20070;-58
2022/11/15 07:29:56;;;;;;;53.20;28.85;;;;;;;25.48;48.48;99246.22;4782342;30;20066;-58
2022/11/15 07:33:05;;;;;;;45.92;26.65;;;;;;;24.97;46.42;99245.03;4771086;30;20069;-58
2022/11/15 07:36:06;;;;;;;51.97;24.55;;;;;;;25.33;46.96;99233.56;4778931;30;20058;-58
2022/11/15 07:39:15;;;;;;;52.65;24.27;;;;;;;25.31;45.76;99233.84;4778286;29;20063;-58
2022/11/15 07:45:47;;;;;;;41.25;22.27;;;;;;;25.35;44.82;99220.34;4774266;29;20066;-59
2022/11/15 07:48:48;;;;;;;43.10;19.20;;;;;;;25.13;45.04;99219.00;4779909;30;20047;-59
2022/11/15 07:51:55;;;;;;;47.92;21.77;;;;;;;24.95;46.70;99208.81;4765939;30;20217;-59
2022/11/15 07:54:55;;;;;;;40.95;20.95;;;;;;;25.27;46.25;99201.78;4781906;29;20479;-60
2022/11/15 07:58:13;;;;;;;38.38;20.40;;;;;;;25.47;45.91;99195.97;4783098;30;20059;-59
2022/11/15 08:01:13;;;;;;;35.83;20.63;;;;;;;25.26;46.97;99194.66;4782339;30;20142;-60
2022/11/15 08:04:21;;;;;;;46.58;21.00;;;;;;;25.04;45.98;99198.00;4768837;30;20141;-60
2022/11/15 08:07:21;;;;;;;48.20;23.15;;;;;;;25.06;47.24;99196.56;4782383;30;20063;-60
2022/11/15 08:10:28;;;;;;;44.20;24.02;;;;;;;24.73;47.27;99192.97;4782016;30;20188;-60
2022/11/15 08:13:29;;;;;;;42.60;23.35;;;;;;;25.03;47.29;99186.22;4768534;30;20070;-59
2022/11/15 08:16:38;;;;;;;41.90;22.48;;;;;;;24.94;45.89;99182.50;4776391;29;20052;-60
2022/11/15 08:19:52;;;;;;;43.30;23.15;;;;;;;24.86;47.53;99177.66;4774618;29;20102;-61
2022/11/15 08:23:07;;;;;;;36.55;22.08;;;;;;;25.11;46.61;99171.78;4774448;29;20059;-60
2022/11/15 08:26:14;;;;;;;42.67;23.13;;;;;;;25.04;46.43;99176.03;4781187;29;20086;-60
2022/11/15 08:29:15;;;;;;;45.97;24.02;;;;;;;25.31;47.75;99167.91;4778818;30;20170;-60
2022/11/15 08:32:22;;;;;;;47.70;24.33;;;;;;;25.04;46.59;99165.84;4772810;30;20131;-59
2022/11/15 08:35:23;;;;;;;45.03;24.38;;;;;;;25.08;46.56;99166.88;4780754;30;20123;-60
2022/11/15 08:38:30;;;;;;;50.35;24.25;;;;;;;25.04;47.34;99159.56;4780718;30;20517;-60
2022/11/15 08:41:38;;;;;;;47.05;25.15;;;;;;;24.96;48.04;99155.56;4780170;29;20065;-62
2022/11/15 08:44:45;;;;;;;;;;;;;;;25.09;46.72;99159.44;4778282;30;20058;-59
2022/11/15 08:47:52;;;;;;;45.08;24.50;;;;;;;25.25;47.41;99143.59;4760765;30;20331;-60
2022/11/15 08:50:55;;;;;;;44.40;23.85;;;;;;;25.11;48.20;99138.84;4775571;30;20063;-60
2022/11/15 08:54:02;;;;;;;46.58;23.92;;;;;;;25.25;48.92;99133.41;4770918;30;20066;-60
2022/11/15 08:57:03;;;;;;;43.60;24.88;;;;;;;25.25;48.32;99130.66;4773590;29;20384;-59
2022/11/15 09:00:11;;;;;;;51.65;25.35;;;;;;;25.24;48.07;99128.22;4776592;30;20055;-59
2022/11/15 09:03:19;;;;;;;46.22;24.33;;;;;;;25.24;48.54;99115.31;4779987;30;20243;-59
2022/11/15 09:06:28;;;;;;;46.97;24.67;;;;;;;25.16;48.79;99125.00;4774968;29;20147;-59
2022/11/15 09:09:41;;;;;;;54.58;26.42;;;;;;;25.32;49.22;99116.56;4773219;30;20059;-60
2022/11/15 09:12:49;;;;;;;51.03;25.63;;;;;;;25.13;48.68;99109.13;4778939;30;20372;-60
2022/11/15 09:15:49;;;;;;;47.22;24.05;;;;;;;25.13;47.89;99109.13;4775863;29;20059;-60
2022/11/15 09:18:56;;;;;;;43.22;22.98;;;;;;;24.81;48.72;99097.00;4775291;30;20798;-60
2022/11/15 09:21:56;;;;;;;39.47;22.50;;;;;;;25.09;48.46;99101.78;4779368;30;20419;-60
2022/11/15 09:25:03;;;;;;;42.25;23.08;;;;;;;24.78;47.69;99103.13;4779814;30;20174;-60
2022/11/15 09:28:10;;;;;;;34.58;21.15;;;;;;;25.08;48.65;99095.47;4778582;30;20578;-60
2022/11/15 09:31:17;;;;;;;40.38;21.73;;;;;;;24.92;47.29;99096.88;4765555;30;20066;-59
2022/11/15 09:34:20;;;;;;;40.83;21.85;;;;;;;25.07;48.23;99099.34;4779087;29;20060;-60
2022/11/15 09:37:28;;;;;;;38.22;21.00;;;;;;;25.21;49.16;99100.19;4772240;30;20060;-59
2022/11/15 09:40:29;;;;;;;35.63;21.08;;;;;;;25.20;48.26;99093.09;4778145;30;20061;-60
2022/11/15 09:44:19;;;;;;;37.85;20.65;;;;;;;25.21;48.08;99088.41;4779306;30;20121;-59
2022/11/15 09:47:34;;;;;;;42.22;22.20;;;;;;;24.97;48.02;99088.53;4775470;29;20135;-60
2022/11/15 09:50:48;;;;;;;34.95;20.75;;;;;;;25.24;48.34;99087.84;4780315;30;20060;-60
2022/11/15 09:53:50;;;;;;;36.30;20.77;;;;;;;24.94;47.09;99091.91;4779027;30;20063;-58
2022/11/15 09:57:00;;;;;;;38.50;21.20;;;;;;;24.86;47.98;99093.41;4780641;30;20147;-60
2022/11/15 10:00:03;;;;;;;40.65;24.08;;;;;;;24.98;48.08;99093.72;4778759;30;20066;-60
2022/11/15 10:03:39;;;;;;;33.88;20.52;;;;;;;25.00;49.36;99093.44;4777115;30;20047;-61
2022/11/15 10:06:28;;;;;;;40.75;19.63;;;;;;;24.92;49.34;99092.19;4780062;30;20063;-61
2022/11/15 10:09:48;;;;;;;37.35;18.85;;;;;;;24.49;49.35;99092.25;4778661;30;20055;-60
2022/11/15 10:12:37;;;;;;;33.88;17.63;;;;;;;24.77;48.03;99086.94;4757844;30;20052;-62
2022/11/15 10:15:23;;;;;;;35.30;17.73;;;;;;;24.73;49.77;99083.16;4770968;29;20763;-63
2022/11/15 10:18:21;;;;;;;35.30;18.57;;;;;;;25.00;48.34;99091.50;4773352;29;20061;-62
2022/11/15 10:21:19;;;;;;;31.38;17.60;;;;;;;24.90;52.08;99082.63;4765037;30;20142;-62
2022/11/15 10:24:12;;;;;;;36.33;18.30;;;;;;;24.75;51.52;99083.69;4772476;30;20048;-60
2022/11/15 10:26:56;;;;;;;37.20;16.35;;;;;;;24.48;48.35;99087.91;4760773;30;20134;-60
2022/11/15 10:29:56;;;;;;;35.75;16.48;;;;;;;24.58;47.74;99079.53;4778241;29;20716;-60
2022/11/15 10:32:36;;;;;;;34.27;16.30;;;;;;;24.53;48.64;99067.81;4779834;30;20047;-60
2022/11/15 10:35:26;;;;;;;29.10;15.68;;;;;;;24.16;47.92;99063.94;4778378;30;20055;-60
2022/11/15 10:38:17;;;;;;;29.20;15.60;;;;;;;24.40;49.48;99067.44;4779212;30;20468;-60
2022/11/15 10:41:08;;;;;;;30.55;15.85;;;;;;;24.52;50.87;99063.47;4769746;30;20051;-61
2022/11/15 10:44:16;;;;;;;34.38;16.67;;;;;;;24.36;49.12;99069.16;4773604;30;20128;-60
2022/11/15 10:46:57;;;;;;;31.13;16.08;;;;;;;24.34;50.13;99068.63;4779309;30;20124;-60
2022/11/15 10:50:08;;;;;;;31.10;17.13;;;;;;;24.25;49.46;99059.44;4778822;30;20055;-60
2022/11/15 10:52:58;;;;;;;34.00;15.85;;;;;;;24.25;49.78;99064.91;4774759;30;20066;-62
2022/11/15 10:55:53;;;;;;;28.40;14.85;;;;;;;24.14;50.10;99060.69;4771456;30;20172;-61
2022/11/15 10:58:50;;;;;;;33.95;14.70;;;;;;;24.03;50.32;99060.78;4777528;29;20044;-60
2022/11/15 11:01:53;;;;;;;33.38;14.57;;;;;;;23.97;52.25;99066.66;4778033;30;20063;-60
2022/11/15 11:04:50;;;;;;;34.35;15.57;;;;;;;24.02;50.82;99064.66;4778743;30;20061;-60
2022/11/15 11:07:41;;;;;;;31.88;14.95;;;;;;;24.16;49.85;99061.19;4779766;30;20059;-60
2022/11/15 11:10:22;;;;;;;;;;;;;;;24.24;49.25;99058.59;4783699;30;20059;-60
2022/11/15 11:13:37;;;;;;;24.35;14.10;;;;;;;23.95;49.80;99057.91;4783080;29;19967;-60
2022/11/15 11:16:49;;;;;;;27.50;14.07;;;;;;;23.79;51.14;99049.06;4764647;30;20070;-60
2022/11/15 11:19:48;;;;;;;28.17;15.07;;;;;;;23.71;51.19;99053.22;4773535;30;20123;-60
2022/11/15 11:23:04;;;;;;;25.67;13.32;;;;;;;23.63;52.15;99054.69;4783118;29;20083;-60
2022/11/15 11:26:16;;;;;;;26.70;13.93;;;;;;;23.68;51.29;99053.00;4782252;30;20051;-60
2022/11/15 11:29:48;;;;;;;28.00;13.10;;;;;;;23.58;53.04;99054.75;4783422;30;20055;-60
2022/11/15 11:32:55;;;;;;;27.23;14.55;;;;;;;23.56;53.18;99054.25;4759111;30;20135;-60
2022/11/15 11:36:04;;;;;;;26.60;14.32;;;;;;;23.40;51.81;99048.09;4775466;29;20372;-61
2022/11/15 11:39:17;;;;;;;32.30;15.00;;;;;;;23.41;53.07;99043.44;4783172;29;20063;-60
2022/11/15 11:42:32;;;;;;;27.75;12.93;;;;;;;23.24;53.06;99049.38;4756872;29;20124;-61
2022/11/15 11:45:21;;;;;;;22.65;13.43;;;;;;;23.19;53.90;99047.50;4781558;30;20059;-62
2022/11/15 11:48:26;;;;;;;24.95;13.43;;;;;;;23.18;53.77;99045.06;4782811;30;20102;-60
2022/11/15 11:51:23;;;;;;;28.52;15.23;;;;;;;23.04;53.99;99039.44;4764300;30;20140;-60
2022/11/15 11:54:20;;;;;;;33.60;15.25;;;;;;;23.05;54.17;99038.34;4778422;30;20058;-61
2022/11/15 11:57:18;;;;;;;31.67;15.45;;;;;;;22.87;55.03;99035.19;4771985;30;20056;-61
2022/11/15 12:00:14;;;;;;;32.80;16.08;;;;;;;;;;4780516;30;20120;-61
2022/11/15 12:03:09;;;;;;;27.17;15.63;;;;;;;22.88;55.51;99036.81;4782086;30;20055;-61
2022/11/15 12:05:56;;;;;;;30.38;15.85;;;;;;;22.70;56.20;99040.25;4782050;29;20513;-61
2022/11/15 12:09:07;;;;;;;27.55;17.58;;;;;;;22.72;55.93;99038.06;4774176;30;20051;-61
2022/11/15 12:11:58;;;;;;;34.03;17.40;;;;;;;22.70;55.73;99033.94;4782737;29;20138;-62
2022/11/15 12:14:58;;;;;;;39.97;19.20;;;;;;;22.62;57.40;99041.69;4786462;29;20059;-60
2022/11/15 12:17:41;;;;;;;35.28;20.05;;;;;;;22.57;57.49;99036.25;4783812;29;20059;-61
2022/11/15 12:20:27;;;;;;;33.30;20.83;;;;;;;22.59;56.54;99035.97;4774134;29;20146;-63
2022/11/15 12:23:39;;;;;;;41.65;22.17;;;;;;;22.61;57.48;99041.97;4781845;29;20058;-63
2022/11/15 12:26:28;;;;;;;40.15;22.10;;;;;;;22.52;58.17;99027.25;4778764;29;20124;-62
2022/11/15 12:29:33;;;;;;;41.13;24.30;;;;;;;22.52;58.11;99036.28;4781810;30;20063;-62
2022/11/15 12:32:45;;;;;;;44.55;25.40;;;;;;;22.54;56.70;99041.47;4781748;30;20066;-62
2022/11/15 12:35:49;;;;;;;45.42;25.52;;;;;;;22.40;58.62;99041.28;4778300;29;20620;-63
2022/11/15 12:39:02;;;;;;;47.72;24.45;;;;;;;22.48;57.33;99052.44;4446266;29;9999675;-62
2022/11/15 12:42:04;;;;;;;55.00;24.87;;;;;;;22.45;57.89;99044.81;4775638;30;20056;-61
2022/11/15 12:44:39;;;;;;;50.55;28.65;;;;;;;22.40;57.24;99046.75;4777056;30;20294;-63
2022/11/15 12:47:28;;;;;;;60.70;30.80;;;;;;;22.39;57.43;99048.66;4777941;30;20055;-61
2022/11/15 12:50:11;;;;;;;71.50;34.08;;;;;;;22.34;57.49;99054.19;4766562;30;20060;-63
2022/11/15 12:53:24;;;;;;;63.33;31.60;;;;;;;22.30;57.90;99053.13;4757785;30;20691;-62
2022/11/15 12:56:19;;;;;;;47.97;27.63;;;;;;;22.27;56.49;99049.00;4776454;30;20484;-64
2022/11/15 12:59:08;;;;;;;48.15;26.40;;;;;;;22.20;58.09;99053.13;4778587;30;20124;-64
2022/11/15 13:01:50;;;;;;;43.08;25.20;;;;;;;22.15;57.24;99055.91;4777296;30;20066;-63
2022/11/15 13:04:45;;;;;;;50.65;23.17;;;;;;;22.16;55.52;99054.81;4780714;30;20529;-62
2022/11/15 13:07:43;;;;;;;42.20;21.13;;;;;;;22.28;56.22;99056.13;4780835;30;20059;-62
2022/11/15 13:10:33;;;;;;;42.00;21.10;;;;;;;22.15;57.90;99058.66;4775565;29;20059;-62
2022/11/15 13:13:54;;;;;;;38.42;21.38;;;;;;;22.14;57.80;99065.19;4773914;29;20540;-62
2022/11/15 13:16:44;;;;;;;37.83;20.65;;;;;;;22.04;58.07;99060.59;4775699;29;20051;-63
2022/11/15 13:19:33;;;;;;;44.10;20.60;;;;;;;22.04;58.36;99066.06;4764592;30;20067;-62
2022/11/15 13:25:33;;;;;;;38.38;21.63;;;;;;;21.87;59.88;99072.69;4772280;30;20128;-62
2022/11/15 13:28:15;;;;;;;35.42;21.55;;;;;;;21.81;59.71;99075.75;4773470;30;20079;-63
2022/11/15 13:31:07;;;;;;;42.90;21.42;;;;;;;21.77;58.14;99080.94;4780104;29;20059;-64
2022/11/15 13:34:08;;;;;;;39.00;22.20;;;;;;;21.82;59.25;99069.16;4777785;30;20055;-63
2022/11/15 13:37:13;;;;;;;45.45;22.92;;;;;;;21.81;59.26;99067.53;4774295;29;20043;-64
2022/11/15 13:40:20;;;;;;;42.97;22.08;;;;;;;21.72;59.60;99070.03;4774948;30;20059;-63
2022/11/15 13:43:30;;;;;;;54.80;25.42;;;;;;;21.72;59.54;99080.13;4770738;29;20048;-63
2022/11/15 13:46:24;;;;;;;41.78;23.20;;;;;;;21.73;58.95;99087.25;4754512;30;20134;-62
2022/11/15 13:49:16;;;;;;;50.00;26.67;;;;;;;21.64;59.40;99085.06;4770184;29;20481;-64
2022/11/15 13:52:16;;;;;;;47.35;27.75;;;;;;;21.65;58.65;99084.00;4771216;30;20059;-64
2022/11/15 13:55:09;;;;;;;61.27;29.07;;;;;;;21.63;59.34;99082.63;4769842;30;20051;-63
2022/11/15 13:58:11;;;;;;;57.00;29.60;;;;;;;21.57;59.17;99089.19;4776789;29;20067;-62
2022/11/15 14:00:57;;;;;;;62.38;31.42;;;;;;;21.53;60.78;99090.84;4770403;30;20452;-61
2022/11/15 14:04:03;;;;;;;63.13;32.10;;;;;;;21.57;59.73;99090.03;4757248;30;20151;-61
2022/11/15 14:06:48;;;;;;;86.70;38.67;;;;;;;21.48;59.56;99086.22;4771246;30;20128;-61
2022/11/15 14:09:46;;;;;;;97.53;44.38;;;;;;;21.52;60.13;99084.56;4779415;29;20513;-65
2022/11/15 14:12:35;;;;;;;109.05;50.17;;;;;;;21.55;60.24;99092.19;4780907;30;20063;-64
2022/11/15 14:15:40;;;;;;;115.03;52.97;;;;;;;21.52;60.73;99092.75;4765729;29;20836;-65
2022/11/15 14:18:40;;;;;;;113.78;53.65;;;;;;;21.48;60.57;99091.69;4779750;29;20047;-61
2022/11/15 14:21:36;;;;;;;107.00;52.10;;;;;;;21.45;61.03;99097.69;4778509;30;20388;-65
2022/11/15 14:24:34;;;;;;;107.60;53.25;;;;;;;21.41;60.74;99102.03;4778646;29;20072;-60
2022/11/15 14:27:31;;;;;;;90.35;47.70;;;;;;;21.60;59.33;99099.56;4777362;29;20059;-61
2022/11/15 14:30:20;;;;;;;92.80;45.08;;;;;;;21.57;58.98;99098.22;4771198;30;20090;-67